Time;durP1;ratioP1;P1;durP2;ratioP2;P2;SDS_P1;SDS_P2;PMS_P1;PMS_P2;Temp;Humidity;BMP_temperature;BMP_pressure;BME280_temperature;BME280_humidity;BME280_pressure;Samples;Min_cycle;Max_cycle;Signal;HPM_P1;HPM_P2
2022/07/07 00:01:00;;;;;;;0.40;0.40;;;;;;;22.06;44.26;101529.88;5201800;28;20102;-78
2022/07/07 00:03:30;;;;;;;0.30;0.30;;;;;;;22.11;42.99;101524.22;5190012;28;20036;-78
2022/07/07 00:06:04;;;;;;;0.30;0.30;;;;;;;22.05;45.10;101516.59;5185052;28;20041;-78
2022/07/07 00:08:55;;;;;;;0.47;0.47;;;;;;;22.08;42.95;101513.72;5215231;28;20556;-78
2022/07/07 00:11:26;;;;;;;0.30;0.30;;;;;;;22.02;44.52;101518.50;5185221;28;20132;-78
2022/07/07 00:13:56;;;;;;;0.45;0.45;;;;;;;22.01;43.76;101519.47;5173189;28;20040;-78
2022/07/07 00:16:27;;;;;;;0.20;0.20;;;;;;;21.97;44.32;101512.59;5178377;28;20076;-78
2022/07/07 00:18:58;;;;;;;1.23;1.13;;;;;;;21.97;44.47;101506.41;5218923;28;20099;-78
2022/07/07 00:21:28;;;;;;;0.47;0.47;;;;;;;21.82;46.24;101505.53;5201920;28;20737;-78
2022/07/07 00:23:59;;;;;;;1.02;0.68;;;;;;;21.83;44.54;101497.41;5189316;28;20116;-78
2022/07/07 00:26:33;;;;;;;0.60;0.60;;;;;;;21.84;45.50;101508.97;5218625;28;20043;-78
2022/07/07 00:29:03;;;;;;;0.30;0.30;;;;;;;21.86;44.05;101501.69;5218216;28;20134;-78
2022/07/07 00:31:37;;;;;;;0.22;0.22;;;;;;;21.78;45.20;101506.66;5201948;28;20083;-79
2022/07/07 00:34:10;;;;;;;0.40;0.40;;;;;;;21.88;44.88;101497.13;5185259;28;20036;-78
2022/07/07 00:36:43;;;;;;;1.48;0.32;;;;;;;21.67;46.58;101491.31;5196563;28;20255;-77
2022/07/07 00:39:13;;;;;;;0.20;0.20;;;;;;;21.75;45.79;101488.19;5195584;28;20512;-78
2022/07/07 00:41:44;;;;;;;0.65;0.40;;;;;;;21.70;45.71;101478.63;5196645;28;20049;-77
2022/07/07 00:44:14;;;;;;;0.38;0.38;;;;;;;21.69;46.80;101463.56;5196759;28;20029;-77
2022/07/07 00:46:47;;;;;;;0.20;0.20;;;;;;;21.67;46.20;101464.59;5198222;28;20033;-78
2022/07/07 00:49:19;;;;;;;0.45;0.45;;;;;;;21.51;47.33;101459.34;5198590;28;20021;-78
2022/07/07 00:51:50;;;;;;;0.60;0.60;;;;;;;21.30;49.19;101456.19;5169483;28;20520;-78
2022/07/07 00:54:24;;;;;;;3.92;1.10;;;;;;;21.13;50.08;101451.84;5215784;28;20029;-77
2022/07/07 00:56:55;;;;;;;0.30;0.30;;;;;;;21.27;49.18;101443.88;5178975;28;20068;-77
2022/07/07 00:59:25;;;;;;;0.63;0.63;;;;;;;21.22;48.67;101446.84;5183025;28;20564;-77
2022/07/07 01:01:57;;;;;;;1.08;1.08;;;;;;;21.36;46.63;101445.97;5169284;28;20136;-78
2022/07/07 01:04:27;;;;;;;0.43;0.43;;;;;;;21.34;47.61;101442.56;5200156;28;20051;-78
2022/07/07 01:07:01;;;;;;;0.40;0.40;;;;;;;21.35;47.10;101449.63;5215417;28;20044;-79
2022/07/07 01:09:32;;;;;;;0.32;0.32;;;;;;;21.29;48.31;101444.63;5220174;28;20045;-78
2022/07/07 01:12:09;;;;;;;0.30;0.30;;;;;;;21.07;48.81;101445.94;5188968;28;20385;-78
2022/07/07 01:14:43;;;;;;;0.30;0.30;;;;;;;21.00;50.41;101443.72;5204225;28;20111;-78
2022/07/07 01:17:17;;;;;;;0.38;0.38;;;;;;;21.04;49.08;101437.25;5180774;28;20112;-78
2022/07/07 01:19:47;;;;;;;1.40;1.00;;;;;;;21.01;49.72;101435.66;5203344;28;20064;-78
2022/07/07 01:22:29;;;;;;;0.85;0.45;;;;;;;21.01;49.86;101432.97;5181282;28;20615;-79
2022/07/07 01:25:07;;;;;;;1.88;1.45;;;;;;;20.86;51.57;101432.06;5181726;28;20525;-79
2022/07/07 01:27:37;;;;;;;0.77;0.77;;;;;;;20.79;51.66;101432.50;5164649;28;20045;-78
2022/07/07 01:30:08;;;;;;;0.95;0.95;;;;;;;20.64;53.19;101429.78;5185138;28;20024;-79
2022/07/07 01:32:39;;;;;;;0.20;0.20;;;;;;;20.52;53.51;101427.84;5184122;28;20509;-78
2022/07/07 01:35:12;;;;;;;0.30;0.30;;;;;;;20.50;53.46;101424.41;5199390;28;20075;-78
2022/07/07 01:37:43;;;;;;;1.15;0.63;;;;;;;20.53;52.94;101418.91;5178078;28;20426;-79
2022/07/07 01:40:13;;;;;;;0.30;0.30;;;;;;;20.54;52.52;101409.94;5197695;28;20021;-78
2022/07/07 01:42:44;;;;;;;0.40;0.40;;;;;;;20.52;53.75;101415.34;5178012;28;20049;-79
2022/07/07 01:45:18;;;;;;;0.40;0.40;;;;;;;20.44;53.24;101414.94;5216297;28;20163;-78
2022/07/07 01:47:48;;;;;;;1.23;1.00;;;;;;;20.42;54.19;101406.16;5202466;28;20097;-79
2022/07/07 01:50:20;;;;;;;0.28;0.28;;;;;;;20.46;53.30;101407.72;5183014;28;20116;-78
2022/07/07 01:52:54;;;;;;;0.43;0.43;;;;;;;20.23;55.32;101396.59;5186386;28;20034;-78
2022/07/07 01:55:24;;;;;;;2.08;1.13;;;;;;;20.12;55.57;101391.84;5201243;28;20045;-79
2022/07/07 01:57:55;;;;;;;0.93;0.90;;;;;;;20.30;56.04;101386.41;5201089;28;20135;-78
2022/07/07 02:00:25;;;;;;;0.50;0.50;;;;;;;20.27;55.45;101382.13;5198340;28;20133;-78
2022/07/07 02:02:56;;;;;;;0.52;0.52;;;;;;;20.32;55.55;101375.69;5187155;28;20033;-79
2022/07/07 02:05:26;;;;;;;0.50;0.50;;;;;;;20.34;55.97;101381.78;5176839;28;20083;-78
2022/07/07 02:07:57;;;;;;;0.95;0.95;;;;;;;20.38;55.31;101368.19;5197004;28;20036;-78
2022/07/07 02:13:22;;;;;;;0.40;0.40;;;;;;;20.24;56.23;101370.78;5179910;28;20040;-78
2022/07/07 02:15:53;;;;;;;1.50;1.13;;;;;;;20.23;56.46;101367.28;5186044;28;20080;-79
2022/07/07 02:18:23;;;;;;;1.27;1.13;;;;;;;20.08;57.32;101374.34;5184793;28;20029;-78
2022/07/07 02:20:54;;;;;;;0.57;0.57;;;;;;;20.16;56.34;101371.25;5184609;28;20037;-78
2022/07/07 02:23:24;;;;;;;5.13;2.08;;;;;;;20.17;55.33;101372.94;5184678;28;20135;-78
2022/07/07 02:25:55;;;;;;;0.30;0.30;;;;;;;20.12;56.40;101373.19;5181459;28;20033;-78
2022/07/07 02:28:26;;;;;;;0.20;0.20;;;;;;;20.08;57.44;101370.84;5200232;28;20406;-78
2022/07/07 02:31:00;;;;;;;0.30;0.30;;;;;;;20.11;56.85;101365.31;5208779;28;20029;-77
2022/07/07 02:33:31;;;;;;;0.40;0.40;;;;;;;20.04;57.78;101358.63;5209488;28;20063;-78
2022/07/07 02:36:06;;;;;;;2.10;0.82;;;;;;;20.06;56.91;101360.25;5219782;28;20189;-78
2022/07/07 02:38:37;;;;;;;2.50;1.58;;;;;;;20.06;57.18;101364.72;5207069;28;20179;-79
2022/07/07 02:41:08;;;;;;;0.30;0.30;;;;;;;20.13;56.30;101358.94;5214949;28;20158;-79
2022/07/07 02:43:39;;;;;;;0.28;0.28;;;;;;;20.19;54.72;101364.88;5194070;28;20115;-79
2022/07/07 02:46:09;;;;;;;1.63;0.30;;;;;;;20.07;57.11;101369.94;5220906;28;20056;-81
2022/07/07 02:48:40;;;;;;;0.20;0.20;;;;;;;20.05;56.16;101371.00;5207426;28;20021;-79
2022/07/07 02:51:11;;;;;;;0.65;0.47;;;;;;;20.08;56.97;101366.34;5204785;28;20563;-79
2022/07/07 02:53:41;;;;;;;0.30;0.30;;;;;;;20.00;57.11;101363.25;5204742;28;20020;-79
2022/07/07 02:56:14;;;;;;;0.35;0.35;;;;;;;19.99;57.64;101361.53;5186575;28;20107;-79
2022/07/07 02:58:45;;;;;;;0.40;0.40;;;;;;;20.01;56.17;101362.31;5199092;28;20881;-79
2022/07/07 03:01:15;;;;;;;0.40;0.40;;;;;;;20.04;56.53;101358.63;5205521;28;20040;-79
2022/07/07 03:03:46;;;;;;;0.45;0.45;;;;;;;20.06;56.34;101362.06;5191287;28;20414;-79
2022/07/07 03:06:16;;;;;;;0.30;0.30;;;;;;;20.07;57.43;101363.78;5187215;28;20045;-79
2022/07/07 03:08:47;;;;;;;0.38;0.38;;;;;;;20.09;56.68;101364.53;5195786;28;20041;-79
2022/07/07 03:11:17;;;;;;;0.40;0.40;;;;;;;20.16;55.17;101362.38;5195701;28;20051;-79
2022/07/07 03:13:50;;;;;;;12.00;1.38;;;;;;;20.08;57.20;101360.19;5204835;28;20028;-78
2022/07/07 03:16:21;;;;;;;0.35;0.35;;;;;;;20.08;56.62;101371.69;5189597;28;20071;-78
2022/07/07 03:18:51;;;;;;;0.20;0.20;;;;;;;20.19;54.88;101371.06;5187302;28;20513;-82
2022/07/07 03:21:22;;;;;;;0.68;0.52;;;;;;;20.18;55.80;101374.66;5195974;28;20044;-79
2022/07/07 03:23:52;;;;;;;0.20;0.20;;;;;;;20.13;55.57;101369.59;5181115;28;20037;-83
2022/07/07 03:26:23;;;;;;;0.30;0.30;;;;;;;20.16;56.29;101362.38;5186674;28;20040;-81
2022/07/07 03:28:53;;;;;;;0.30;0.30;;;;;;;20.16;55.74;101365.94;5186049;28;20033;-82
2022/07/07 03:31:24;;;;;;;3.00;1.08;;;;;;;20.22;54.71;101362.03;5167319;28;20071;-78
2022/07/07 03:33:55;;;;;;;0.20;0.20;;;;;;;20.22;54.71;101362.03;5188110;28;20064;-80
2022/07/07 03:36:25;;;;;;;1.55;0.30;;;;;;;20.28;55.22;101362.53;5197857;28;20037;-83
2022/07/07 03:38:56;;;;;;;1.00;0.73;;;;;;;20.21;55.40;101360.31;5203016;28;20032;-80
2022/07/07 03:41:26;;;;;;;0.40;0.40;;;;;;;20.26;54.83;101363.59;5185609;28;20128;-84
2022/07/07 03:43:57;;;;;;;0.85;0.85;;;;;;;20.34;56.67;101360.44;5185639;28;20428;-80
2022/07/07 03:46:27;;;;;;;0.50;0.50;;;;;;;20.27;56.95;101358.16;5185842;28;20361;-81
2022/07/07 03:48:58;;;;;;;0.50;0.50;;;;;;;20.26;57.27;101363.59;5186944;28;20052;-81
2022/07/07 03:51:34;;;;;;;0.45;0.45;;;;;;;20.13;59.38;101356.28;5199449;28;20084;-79
2022/07/07 03:54:04;;;;;;;0.75;0.47;;;;;;;20.17;59.28;101353.44;5207504;28;20366;-80
2022/07/07 03:56:38;;;;;;;0.20;0.20;;;;;;;20.22;57.45;101346.03;5212781;28;20033;-81
2022/07/07 03:59:12;;;;;;;0.47;0.47;;;;;;;20.29;56.53;101353.59;5206092;28;20107;-80
2022/07/07 04:01:44;;;;;;;0.25;0.25;;;;;;;20.25;57.10;101344.06;5201521;28;20056;-80
2022/07/07 04:04:15;;;;;;;0.32;0.32;;;;;;;20.20;58.22;101335.47;5201378;28;20533;-79
2022/07/07 04:06:46;;;;;;;0.40;0.40;;;;;;;20.09;59.73;101327.22;5168188;28;20065;-81
2022/07/07 04:09:24;;;;;;;0.22;0.22;;;;;;;20.02;59.62;101320.56;5201948;28;20472;-83
2022/07/07 04:11:54;;;;;;;0.63;0.63;;;;;;;20.12;59.04;101325.25;5215823;28;20037;-79
2022/07/07 04:14:28;;;;;;;0.40;0.40;;;;;;;20.15;57.42;101328.69;5183773;28;20033;-81
2022/07/07 04:16:58;;;;;;;3.95;0.80;;;;;;;20.07;58.93;101316.69;5216528;28;20052;-79
2022/07/07 04:19:29;;;;;;;0.47;0.45;;;;;;;20.05;58.66;101323.06;5213697;28;20041;-81
2022/07/07 04:22:00;;;;;;;0.30;0.30;;;;;;;19.97;60.85;101315.50;5179156;28;20292;-79
2022/07/07 04:24:34;;;;;;;0.65;0.40;;;;;;;19.85;61.32;101311.72;5198923;28;20115;-82
2022/07/07 04:27:08;;;;;;;0.55;0.55;;;;;;;19.95;58.81;101318.25;5178596;28;20064;-80
2022/07/07 04:29:39;;;;;;;2.40;1.50;;;;;;;19.96;60.25;101308.44;5216028;28;20063;-80
2022/07/07 04:32:13;;;;;;;0.40;0.40;;;;;;;19.98;58.95;101311.88;5218437;28;20037;-80
2022/07/07 04:34:43;;;;;;;0.30;0.30;;;;;;;19.81;60.56;101311.00;5181818;28;20036;-81
2022/07/07 04:37:14;;;;;;;0.38;0.38;;;;;;;19.89;60.46;101312.41;5183656;28;20060;-80
2022/07/07 04:39:44;;;;;;;0.22;0.22;;;;;;;19.87;59.59;101315.16;5196131;28;20029;-79
2022/07/07 04:42:15;;;;;;;0.85;0.85;;;;;;;19.73;59.69;101313.25;5216461;28;20613;-80
2022/07/07 04:44:45;;;;;;;4.28;1.42;;;;;;;19.84;59.59;101317.13;5200164;28;20044;-83
2022/07/07 04:47:16;;;;;;;0.38;0.38;;;;;;;19.90;58.61;101308.81;5182172;28;20061;-78
2022/07/07 04:49:49;;;;;;;0.30;0.30;;;;;;;19.80;60.81;101311.09;5197654;28;20037;-81
2022/07/07 04:52:22;;;;;;;0.28;0.28;;;;;;;19.80;59.73;101309.28;5162235;28;20039;-81
2022/07/07 04:54:56;;;;;;;0.30;0.30;;;;;;;19.63;61.36;101312.03;5192122;28;20040;-81
2022/07/07 04:57:27;;;;;;;0.47;0.47;;;;;;;19.73;60.57;101313.25;5171781;28;20048;-81
2022/07/07 04:59:57;;;;;;;0.30;0.30;;;;;;;19.77;60.63;101316.59;5205533;28;20029;-80
2022/07/07 05:02:28;;;;;;;0.50;0.50;;;;;;;19.81;60.96;101305.69;5204259;28;20040;-83
2022/07/07 05:04:58;;;;;;;0.35;0.35;;;;;;;19.79;61.12;101307.56;5185371;28;20072;-81
2022/07/07 05:07:29;;;;;;;0.30;0.30;;;;;;;19.87;58.96;101309.00;5187154;28;20072;-79
2022/07/07 05:10:00;;;;;;;0.73;0.63;;;;;;;19.80;61.41;101303.13;5191719;28;20560;-81
2022/07/07 05:12:31;;;;;;;0.30;0.30;;;;;;;19.70;60.68;101297.47;5209551;28;20041;-80
2022/07/07 05:15:01;;;;;;;0.20;0.20;;;;;;;19.88;60.68;101300.03;5178001;28;20153;-82
2022/07/07 05:17:32;;;;;;;0.57;0.50;;;;;;;19.84;60.76;101298.47;5181232;28;20068;-79
2022/07/07 05:20:03;;;;;;;0.20;0.20;;;;;;;19.87;60.25;101298.34;5200928;28;20029;-78
2022/07/07 05:22:34;;;;;;;0.22;0.22;;;;;;;19.93;58.81;101306.81;5195459;28;20068;-79
2022/07/07 05:25:07;;;;;;;0.40;0.40;;;;;;;19.95;59.63;101312.06;5181797;28;20374;-78
2022/07/07 05:27:38;;;;;;;0.38;0.38;;;;;;;19.94;59.80;101315.69;5180396;28;20545;-78
2022/07/07 05:30:09;;;;;;;0.30;0.30;;;;;;;19.90;60.90;101328.31;5200220;28;20039;-78
2022/07/07 05:32:40;;;;;;;0.30;0.30;;;;;;;19.93;63.24;101335.25;5185286;28;20526;-78
2022/07/07 05:35:11;;;;;;;0.30;0.30;;;;;;;19.99;61.46;101347.38;5200879;28;20043;-78
2022/07/07 05:37:41;;;;;;;0.40;0.40;;;;;;;19.91;63.34;101363.78;5181701;28;20069;-78
2022/07/07 05:40:12;;;;;;;0.75;0.75;;;;;;;19.81;64.57;101353.59;5178668;28;20034;-79
2022/07/07 05:42:43;;;;;;;0.20;0.20;;;;;;;19.92;61.48;101349.53;5195407;28;20031;-80
2022/07/07 05:45:13;;;;;;;0.20;0.20;;;;;;;19.89;60.84;101360.34;5226800;28;20052;-79
2022/07/07 05:47:44;;;;;;;0.20;0.20;;;;;;;19.84;61.00;101370.38;5201367;28;20085;-80
2022/07/07 05:50:15;;;;;;;0.30;0.30;;;;;;;19.75;63.31;101372.59;5189947;28;20110;-80
2022/07/07 05:52:49;;;;;;;0.73;0.63;;;;;;;19.65;62.51;101376.69;5194543;28;20689;-79
2022/07/07 05:55:19;;;;;;;0.20;0.20;;;;;;;19.68;63.97;101376.53;5184842;28;20029;-80
2022/07/07 05:57:50;;;;;;;0.43;0.43;;;;;;;19.70;61.62;101374.66;5184910;28;20052;-79
2022/07/07 06:00:20;;;;;;;0.20;0.20;;;;;;;19.63;61.93;101370.59;5200469;28;20444;-79
2022/07/07 06:02:52;;;;;;;6.28;0.98;;;;;;;19.57;62.76;101384.25;5182294;28;20029;-80
2022/07/07 06:05:22;;;;;;;0.13;0.13;;;;;;;19.55;63.40;101388.78;5200243;28;20094;-80
2022/07/07 06:07:53;;;;;;;0.20;0.20;;;;;;;19.54;62.31;101387.09;5182035;28;20763;-79
2022/07/07 06:10:24;;;;;;;0.20;0.20;;;;;;;19.59;61.78;101388.53;5208090;28;20063;-80
2022/07/07 06:12:54;;;;;;;0.30;0.30;;;;;;;19.64;61.84;101378.53;5169161;28;20047;-80
2022/07/07 06:15:26;;;;;;;0.30;0.30;;;;;;;19.63;61.87;101390.09;5204399;28;20033;-80
2022/07/07 06:17:59;;;;;;;0.20;0.20;;;;;;;19.65;61.87;101385.56;5199564;28;20029;-80
2022/07/07 06:20:30;;;;;;;0.20;0.20;;;;;;;19.72;61.06;101385.22;5195646;28;20155;-80
2022/07/07 06:23:01;;;;;;;0.20;0.20;;;;;;;19.70;61.75;101384.44;5183987;28;20028;-80
2022/07/07 06:25:34;;;;;;;0.30;0.30;;;;;;;19.72;61.74;101386.06;5209489;28;20314;-80
2022/07/07 06:28:08;;;;;;;0.30;0.30;;;;;;;19.72;62.21;101386.06;5182824;28;20021;-80
2022/07/07 06:30:39;;;;;;;0.20;0.20;;;;;;;19.73;62.93;101377.13;5179473;28;20063;-80
2022/07/07 06:33:09;;;;;;;0.25;0.25;;;;;;;19.71;64.07;101387.00;5187883;28;20611;-80
2022/07/07 06:35:40;;;;;;;0.20;0.20;;;;;;;19.77;63.65;101384.03;5216899;28;20029;-80
2022/07/07 06:38:10;;;;;;;0.40;0.40;;;;;;;19.73;64.45;101403.75;5181848;28;20064;-80
2022/07/07 06:40:41;;;;;;;0.20;0.20;;;;;;;19.64;65.55;101405.13;5173400;28;20708;-79
2022/07/07 06:43:11;;;;;;;0.20;0.20;;;;;;;19.75;64.22;101409.88;5199419;28;20120;-80
2022/07/07 06:45:42;;;;;;;0.40;0.40;;;;;;;19.80;63.45;101405.13;5184491;28;20033;-80
2022/07/07 06:48:15;;;;;;;0.20;0.20;;;;;;;19.57;65.71;101410.88;5178569;28;20075;-79
2022/07/07 06:50:46;;;;;;;0.20;0.20;;;;;;;19.56;65.02;101411.81;5184444;28;20645;-80
2022/07/07 06:53:17;;;;;;;0.75;0.75;;;;;;;19.55;65.54;101415.41;5179423;28;20056;-80
2022/07/07 06:55:48;;;;;;;0.35;0.35;;;;;;;19.65;64.68;101413.97;5217097;28;20064;-79
2022/07/07 06:58:18;;;;;;;0.20;0.20;;;;;;;19.56;65.33;101423.31;5201203;28;20060;-79
2022/07/07 07:00:49;;;;;;;0.20;0.20;;;;;;;19.54;64.97;101421.69;5186139;28;20469;-80
2022/07/07 07:03:19;;;;;;;0.20;0.20;;;;;;;19.48;65.08;101422.88;5181246;28;20413;-79
2022/07/07 07:05:50;;;;;;;0.20;0.20;;;;;;;19.52;65.05;101428.91;5198212;28;20116;-79
2022/07/07 07:08:20;;;;;;;0.40;0.40;;;;;;;19.47;65.43;101430.00;5218012;28;20036;-80
2022/07/07 07:10:51;;;;;;;0.28;0.28;;;;;;;19.47;65.04;101440.63;5199315;28;20520;-79
2022/07/07 07:13:21;;;;;;;0.20;0.20;;;;;;;19.52;65.17;101436.88;5187472;28;20593;-80
2022/07/07 07:15:52;;;;;;;0.35;0.35;;;;;;;19.42;65.05;101442.69;5181365;28;20057;-80
2022/07/07 07:18:23;;;;;;;0.20;0.20;;;;;;;19.55;63.67;101444.69;5180005;28;20035;-80
2022/07/07 07:20:53;;;;;;;0.20;0.20;;;;;;;19.56;63.80;101457.94;5199150;28;20457;-80
2022/07/07 07:23:24;;;;;;;0.30;0.30;;;;;;;19.52;64.53;101459.03;5200435;28;20146;-79
2022/07/07 07:25:55;;;;;;;0.40;0.38;;;;;;;19.50;63.84;101456.44;5186082;28;20450;-80
2022/07/07 07:28:25;;;;;;;0.38;0.38;;;;;;;19.43;63.90;101443.53;5203288;28;20075;-80
2022/07/07 07:30:56;;;;;;;0.38;0.38;;;;;;;19.44;64.46;101453.25;5186058;28;20037;-80
2022/07/07 07:33:28;;;;;;;0.20;0.20;;;;;;;19.43;63.56;101460.38;5189101;28;20120;-79
2022/07/07 07:36:01;;;;;;;0.20;0.20;;;;;;;19.41;63.95;101470.25;5174886;28;20083;-80
2022/07/07 07:38:32;;;;;;;0.20;0.20;;;;;;;19.31;62.94;101488.50;5211399;28;20033;-81
2022/07/07 07:41:03;;;;;;;0.20;0.20;;;;;;;19.36;62.58;101474.94;5188515;28;20048;-79
2022/07/07 07:43:34;;;;;;;0.20;0.20;;;;;;;19.18;62.88;101482.94;5200114;28;20509;-81
2022/07/07 07:46:08;;;;;;;0.20;0.20;;;;;;;19.14;62.74;101486.69;5184403;28;20087;-80
2022/07/07 07:48:39;;;;;;;0.20;0.20;;;;;;;19.28;61.99;101493.13;5165450;28;20029;-80
2022/07/07 07:51:10;;;;;;;0.40;0.40;;;;;;;19.18;62.60;101493.59;5213818;28;20033;-80
2022/07/07 07:53:43;;;;;;;0.25;0.25;;;;;;;19.19;62.01;101489.09;5189887;28;20499;-79
2022/07/07 07:56:14;;;;;;;0.35;0.35;;;;;;;19.12;62.50;101504.53;5185606;28;20048;-78
2022/07/07 07:58:44;;;;;;;0.30;0.30;;;;;;;19.13;62.05;101495.59;5202776;28;20409;-78
2022/07/07 08:01:15;;;;;;;0.20;0.20;;;;;;;19.09;61.83;101504.69;5198975;28;20065;-78
2022/07/07 08:03:45;;;;;;;0.20;0.20;;;;;;;19.10;62.01;101501.09;5200279;28;20029;-78
2022/07/07 08:06:16;;;;;;;0.20;0.20;;;;;;;19.12;61.35;101501.00;5181691;28;20682;-78
2022/07/07 08:08:47;;;;;;;0.20;0.20;;;;;;;19.06;61.70;101503.97;5219356;28;20094;-78
2022/07/07 08:11:17;;;;;;;2.65;0.52;;;;;;;19.04;61.75;101512.03;5195854;28;20178;-78
2022/07/07 08:13:48;;;;;;;0.25;0.25;;;;;;;19.09;61.75;101510.00;5181793;28;20044;-79
2022/07/07 08:16:18;;;;;;;0.52;0.52;;;;;;;19.02;63.10;101496.16;5166177;28;20124;-79
2022/07/07 08:18:52;;;;;;;0.20;0.20;;;;;;;19.13;62.25;101500.06;5200411;28;20037;-78
2022/07/07 08:21:23;;;;;;;0.28;0.28;;;;;;;19.19;61.58;101508.59;5214262;28;20032;-79
2022/07/07 08:23:54;;;;;;;0.20;0.20;;;;;;;19.16;62.60;101500.78;5205811;28;20029;-80
2022/07/07 08:26:25;;;;;;;0.40;0.40;;;;;;;19.14;62.95;101502.63;5198438;28;20037;-79
2022/07/07 08:28:59;;;;;;;0.20;0.20;;;;;;;19.19;63.06;101516.59;5206690;28;20788;-79
2022/07/07 08:31:30;;;;;;;0.35;0.35;;;;;;;19.08;64.57;101526.91;5192166;28;20045;-79
2022/07/07 08:34:00;;;;;;;0.25;0.25;;;;;;;19.15;63.18;101528.31;5182329;28;20036;-78
2022/07/07 08:36:31;;;;;;;0.85;0.85;;;;;;;19.23;61.96;101533.25;5181077;28;20136;-78
2022/07/07 08:39:07;;;;;;;0.55;0.55;;;;;;;19.06;63.14;101542.06;5185287;28;20025;-79
2022/07/07 08:41:38;;;;;;;0.20;0.20;;;;;;;19.16;62.35;101548.66;5183237;28;20043;-80
2022/07/07 08:44:12;;;;;;;;;;;;;;;19.19;61.63;101537.88;5185943;28;20025;-79
2022/07/07 08:46:45;;;;;;;0.47;0.47;;;;;;;19.07;61.27;101540.28;5188944;28;19951;-79
2022/07/07 08:49:19;;;;;;;1.27;0.95;;;;;;;19.14;61.23;101539.88;5181233;28;20108;-79
2022/07/07 08:51:49;;;;;;;0.20;0.20;;;;;;;19.21;60.49;101543.09;5198355;28;20049;-79
2022/07/07 08:54:20;;;;;;;0.20;0.20;;;;;;;19.23;60.10;101540.34;5181081;28;20033;-78
2022/07/07 08:56:51;;;;;;;0.30;0.30;;;;;;;19.27;59.95;101553.44;5185293;28;20037;-78
2022/07/07 08:59:22;;;;;;;1.92;0.90;;;;;;;19.23;59.80;101561.63;5200086;28;20028;-78
2022/07/07 09:01:59;;;;;;;0.30;0.30;;;;;;;19.22;59.67;101550.16;5181761;28;20271;-79
2022/07/07 09:04:33;;;;;;;0.20;0.20;;;;;;;19.32;59.30;101561.19;5179578;28;20044;-78
2022/07/07 09:07:09;;;;;;;0.85;0.40;;;;;;;19.42;59.66;101562.44;5197161;28;20037;-78
2022/07/07 09:09:40;;;;;;;0.20;0.20;;;;;;;19.46;59.54;101566.66;5218141;28;20106;-79
2022/07/07 09:12:14;;;;;;;0.20;0.20;;;;;;;19.49;58.89;101576.31;5182535;28;20121;-79
2022/07/07 09:14:54;;;;;;;0.32;0.32;;;;;;;19.50;58.91;101578.88;5199935;28;20040;-78
2022/07/07 09:17:27;;;;;;;0.13;0.13;;;;;;;19.50;59.22;101584.19;5197177;28;20521;-78
2022/07/07 09:19:59;;;;;;;0.20;0.20;;;;;;;19.54;58.43;101586.72;5184525;28;20602;-78
2022/07/07 09:22:52;;;;;;;0.22;0.22;;;;;;;19.42;58.97;101589.06;5200475;28;20107;-79
2022/07/07 09:25:25;;;;;;;0.30;0.30;;;;;;;19.48;58.57;101596.72;5185863;28;20116;-80
2022/07/07 09:28:08;;;;;;;0.38;0.38;;;;;;;19.56;58.38;101598.13;5189705;28;20032;-79
2022/07/07 09:30:40;;;;;;;0.30;0.30;;;;;;;19.64;57.91;101591.47;5187935;28;20055;-80
2022/07/07 09:33:25;;;;;;;0.20;0.20;;;;;;;19.63;58.32;101605.72;5200638;28;20040;-80
2022/07/07 09:38:45;;;;;;;0.55;0.55;;;;;;;19.66;57.74;101605.56;5201304;28;20629;-79
2022/07/07 09:41:19;;;;;;;0.20;0.20;;;;;;;19.67;57.69;101606.44;5182951;28;20097;-80
2022/07/07 09:43:52;;;;;;;0.28;0.28;;;;;;;19.70;57.75;101606.28;5182077;28;20029;-80
2022/07/07 09:46:28;;;;;;;0.30;0.30;;;;;;;19.81;57.90;101603.91;5183122;28;20068;-80
2022/07/07 09:48:59;;;;;;;0.25;0.25;;;;;;;19.85;57.77;101609.13;5193510;28;20385;-80
2022/07/07 09:51:32;;;;;;;0.20;0.20;;;;;;;19.92;57.47;101613.19;5198808;28;20059;-81
2022/07/07 09:54:14;;;;;;;0.38;0.38;;;;;;;20.00;57.53;101612.78;5176369;28;20033;-80
2022/07/07 09:56:48;;;;;;;2.17;0.93;;;;;;;19.99;56.99;101617.22;5217938;28;20119;-81
2022/07/07 09:59:22;;;;;;;0.85;0.40;;;;;;;20.08;56.76;101622.06;5196098;28;20493;-80
2022/07/07 10:01:52;;;;;;;0.77;0.77;;;;;;;20.07;56.69;101619.50;5197452;28;20398;-80
2022/07/07 10:04:25;;;;;;;0.20;0.20;;;;;;;19.93;56.17;101618.41;5180419;28;20033;-81
2022/07/07 10:06:59;;;;;;;0.30;0.30;;;;;;;19.89;56.05;101639.94;5179991;28;20029;-80
2022/07/07 10:09:30;;;;;;;0.20;0.20;;;;;;;19.79;56.87;101629.75;5197003;28;20033;-79
2022/07/07 10:15:11;;;;;;;0.32;0.32;;;;;;;19.88;56.37;101641.78;5192288;28;20227;-80
2022/07/07 10:17:43;;;;;;;1.25;0.40;;;;;;;19.97;56.33;101648.41;5196835;28;20076;-80
2022/07/07 10:20:14;;;;;;;2.08;0.75;;;;;;;19.90;56.43;101636.34;5180146;28;20060;-80
2022/07/07 10:22:45;;;;;;;0.20;0.20;;;;;;;19.94;56.06;101635.25;5179892;28;20056;-81
2022/07/07 10:25:16;;;;;;;0.40;0.40;;;;;;;19.90;55.57;101644.34;5186598;28;20040;-80
2022/07/07 10:27:52;;;;;;;0.70;0.70;;;;;;;19.90;55.72;101639.91;5185467;28;20596;-79
2022/07/07 10:30:30;;;;;;;0.20;0.20;;;;;;;20.02;55.49;101637.50;5200137;28;20029;-80
2022/07/07 10:33:07;;;;;;;0.20;0.20;;;;;;;20.04;55.20;101640.97;5183196;28;20063;-80
2022/07/07 10:35:42;;;;;;;0.40;0.40;;;;;;;20.15;55.21;101651.06;5198824;28;20044;-80
2022/07/07 10:38:16;;;;;;;0.22;0.22;;;;;;;20.06;55.67;101642.59;5193268;28;20029;-80
2022/07/07 10:40:54;;;;;;;0.20;0.20;;;;;;;20.17;55.13;101652.69;5194389;28;20133;-80
2022/07/07 10:43:38;;;;;;;1.10;0.63;;;;;;;20.13;55.26;101653.81;5192656;28;20079;-80
2022/07/07 10:46:09;;;;;;;1.13;0.65;;;;;;;20.12;55.87;101670.72;5173276;28;20091;-80
2022/07/07 10:48:47;;;;;;;0.25;0.25;;;;;;;19.91;55.79;101673.59;5167458;28;20612;-79
2022/07/07 10:51:25;;;;;;;0.20;0.20;;;;;;;19.95;55.69;101682.28;5196997;28;20052;-80
2022/07/07 10:54:02;;;;;;;0.28;0.28;;;;;;;19.94;56.08;101689.38;5189133;28;20163;-80
2022/07/07 10:56:51;;;;;;;0.43;0.43;;;;;;;19.81;56.27;101683.78;5195560;28;20036;-79
2022/07/07 10:59:23;;;;;;;0.30;0.30;;;;;;;19.72;56.80;101691.38;5202638;28;20484;-80
2022/07/07 11:02:04;;;;;;;0.30;0.30;;;;;;;19.70;56.78;101698.59;5188052;28;20048;-81
2022/07/07 11:04:41;;;;;;;0.20;0.20;;;;;;;19.54;57.59;101698.50;5184887;28;20049;-79
2022/07/07 11:07:17;;;;;;;0.70;0.40;;;;;;;19.66;57.35;101697.88;5186893;28;20033;-78
2022/07/07 11:10:05;;;;;;;;;;;;;;;19.71;57.13;101702.97;5178771;28;20486;-79
2022/07/07 11:12:43;;;;;;;0.45;0.45;;;;;;;19.67;57.09;101702.25;5203595;28;19920;-80
2022/07/07 11:15:27;;;;;;;0.20;0.20;;;;;;;19.67;57.22;101702.25;5208667;28;20445;-80
2022/07/07 11:17:57;;;;;;;0.13;0.13;;;;;;;19.79;56.78;101709.63;5195685;28;20052;-81
2022/07/07 11:20:30;;;;;;;0.20;0.20;;;;;;;19.84;56.97;101713.88;5187384;28;20072;-80
2022/07/07 11:23:11;;;;;;;;;;;;;;;19.88;56.83;101718.13;5196724;28;20033;-81
2022/07/07 11:25:42;;;;;;;0.28;0.28;;;;;;;19.95;56.48;101711.56;5185013;28;19927;-80
2022/07/07 11:28:12;;;;;;;2.60;0.50;;;;;;;19.98;56.50;101708.72;5187198;28;20017;-80
2022/07/07 11:30:43;;;;;;;0.80;0.80;;;;;;;20.03;56.15;101709.38;5171027;28;20110;-78
2022/07/07 11:33:14;;;;;;;0.25;0.25;;;;;;;20.04;55.90;101716.41;5207509;28;20036;-79
2022/07/07 11:35:44;;;;;;;0.30;0.30;;;;;;;20.07;55.96;101710.94;5201509;28;20099;-78
2022/07/07 11:38:15;;;;;;;1.38;0.68;;;;;;;20.07;55.96;101710.94;5202106;28;20033;-80
2022/07/07 11:40:45;;;;;;;0.85;0.65;;;;;;;20.13;55.83;101715.94;5199702;28;20381;-80
2022/07/07 11:43:25;;;;;;;0.20;0.20;;;;;;;20.21;55.78;101723.53;5185427;28;20461;-79
2022/07/07 11:45:56;;;;;;;0.20;0.20;;;;;;;20.20;55.77;101724.47;5167740;28;20097;-80
2022/07/07 11:48:38;;;;;;;0.28;0.28;;;;;;;20.23;55.76;101726.13;5199211;28;20512;-80
2022/07/07 11:51:09;;;;;;;2.92;2.38;;;;;;;20.28;55.53;101730.25;5200954;28;20063;-80
2022/07/07 11:53:40;;;;;;;0.55;0.55;;;;;;;20.25;55.51;101727.75;5182731;28;20025;-80
2022/07/07 11:56:27;;;;;;;0.22;0.22;;;;;;;20.38;55.29;101729.78;5183056;28;20052;-80
2022/07/07 11:58:59;;;;;;;0.30;0.30;;;;;;;20.40;55.16;101734.09;5174517;28;20450;-80